Armavir, Russia
Current Conditions -  °F | °C
As of 1:00 AM on Monday 26 Jan 2015 (Local Time) from URMT Reporting Station
Overcast Overcast  
Wind Chill: 21°   Ceiling: 400
Heat Index: 32°   Visibility: 6mi
Dew Point: 32°   Wind: 16mph
Humidity: 100%   Direction: 140°SE
Pressure: 30.09"   Gusts: 22mph
Location:  44.99°N, 41.12°E
Report Text: URMT 252200Z 14007G10MPS 9999 OVC004 00/M00 Q1019 NOSIG RMKQBB130 QFE724 SC060
Loading
Personal Weather Stations






























Interactive Weather Map New forecast layout! Learn more

10-Day Weather Forecast

Advertisements
Track Severe Weather on mobile